sensor_id;sensor_type;location;lat;lon;timestamp;temperature;humidity
33077;DHT22;38790;51.964;5.924;2022-12-29T00:02:24;9.80;99.90
33077;DHT22;38790;51.964;5.924;2022-12-29T00:04:50;9.80;99.90
33077;DHT22;38790;51.964;5.924;2022-12-29T00:07:17;9.70;99.90
33077;DHT22;38790;51.964;5.924;2022-12-29T00:09:43;9.80;99.90
33077;DHT22;38790;51.964;5.924;2022-12-29T00:12:09;9.80;99.90
33077;DHT22;38790;51.964;5.924;2022-12-29T00:14:36;9.70;99.90
33077;DHT22;38790;51.964;5.924;2022-12-29T00:17:21;9.60;99.90
33077;DHT22;38790;51.964;5.924;2022-12-29T00:19:47;9.70;99.90
33077;DHT22;38790;51.964;5.924;2022-12-29T00:22:31;9.70;99.90
33077;DHT22;38790;51.964;5.924;2022-12-29T00:25:16;9.70;99.90
33077;DHT22;38790;51.964;5.924;2022-12-29T00:28:01;9.60;99.90
33077;DHT22;38790;51.964;5.924;2022-12-29T00:30:45;9.60;99.90
33077;DHT22;38790;51.964;5.924;2022-12-29T00:33:32;9.60;99.90
33077;DHT22;38790;51.964;5.924;2022-12-29T00:36:35;9.60;99.90
33077;DHT22;38790;51.964;5.924;2022-12-29T00:39:13;9.60;99.90
33077;DHT22;38790;51.964;5.924;2022-12-29T00:42:04;9.60;99.90
33077;DHT22;38790;51.964;5.924;2022-12-29T00:44:49;9.70;99.90
33077;DHT22;38790;51.964;5.924;2022-12-29T00:47:15;9.60;99.90
33077;DHT22;38790;51.964;5.924;2022-12-29T00:49:41;9.70;99.90
33077;DHT22;38790;51.964;5.924;2022-12-29T00:52:09;9.70;99.90
33077;DHT22;38790;51.964;5.924;2022-12-29T00:54:38;9.70;99.90
33077;DHT22;38790;51.964;5.924;2022-12-29T00:57:05;9.70;99.90
33077;DHT22;38790;51.964;5.924;2022-12-29T00:59:34;9.70;99.90
33077;DHT22;38790;51.964;5.924;2022-12-29T01:02:03;9.70;99.90
33077;DHT22;38790;51.964;5.924;2022-12-29T01:04:29;9.80;99.90
33077;DHT22;38790;51.964;5.924;2022-12-29T01:06:55;9.80;99.90
33077;DHT22;38790;51.964;5.924;2022-12-29T01:09:22;9.80;99.90
33077;DHT22;38790;51.964;5.924;2022-12-29T01:12:08;9.70;99.90
33077;DHT22;38790;51.964;5.924;2022-12-29T01:14:35;9.70;99.90
33077;DHT22;38790;51.964;5.924;2022-12-29T01:17:01;9.70;99.90
33077;DHT22;38790;51.964;5.924;2022-12-29T01:19:27;9.70;99.90
33077;DHT22;38790;51.964;5.924;2022-12-29T01:21:53;9.80;99.90
33077;DHT22;38790;51.964;5.924;2022-12-29T01:24:20;9.70;99.90
33077;DHT22;38790;51.964;5.924;2022-12-29T01:26:47;9.80;99.90
33077;DHT22;38790;51.964;5.924;2022-12-29T01:29:14;9.80;99.90
33077;DHT22;38790;51.964;5.924;2022-12-29T01:31:40;9.80;99.90
33077;DHT22;38790;51.964;5.924;2022-12-29T01:34:07;9.80;99.90
33077;DHT22;38790;51.964;5.924;2022-12-29T01:36:33;9.80;99.90
33077;DHT22;38790;51.964;5.924;2022-12-29T01:39:00;9.80;99.90
33077;DHT22;38790;51.964;5.924;2022-12-29T01:41:26;9.70;99.90
33077;DHT22;38790;51.964;5.924;2022-12-29T01:43:58;9.70;99.90
33077;DHT22;38790;51.964;5.924;2022-12-29T01:51:59;9.70;99.90
33077;DHT22;38790;51.964;5.924;2022-12-29T01:57:04;9.60;99.90
33077;DHT22;38790;51.964;5.924;2022-12-29T01:59:41;9.60;99.90
33077;DHT22;38790;51.964;5.924;2022-12-29T02:02:09;9.70;99.90
33077;DHT22;38790;51.964;5.924;2022-12-29T02:04:40;9.70;99.90
33077;DHT22;38790;51.964;5.924;2022-12-29T02:07:18;9.70;99.90
33077;DHT22;38790;51.964;5.924;2022-12-29T02:09:49;9.70;99.90
33077;DHT22;38790;51.964;5.924;2022-12-29T02:12:17;9.70;99.90
33077;DHT22;38790;51.964;5.924;2022-12-29T02:14:45;9.80;99.90
33077;DHT22;38790;51.964;5.924;2022-12-29T02:17:47;9.80;99.90
33077;DHT22;38790;51.964;5.924;2022-12-29T02:26:44;10.00;99.90
33077;DHT22;38790;51.964;5.924;2022-12-29T02:31:59;9.90;99.90
33077;DHT22;38790;51.964;5.924;2022-12-29T02:35:10;9.90;99.90
33077;DHT22;38790;51.964;5.924;2022-12-29T02:38:05;10.00;99.90
33077;DHT22;38790;51.964;5.924;2022-12-29T02:40:53;10.10;99.90
33077;DHT22;38790;51.964;5.924;2022-12-29T02:43:38;10.10;99.90
33077;DHT22;38790;51.964;5.924;2022-12-29T02:48:54;10.20;99.90
33077;DHT22;38790;51.964;5.924;2022-12-29T02:51:37;10.20;99.90
33077;DHT22;38790;51.964;5.924;2022-12-29T02:54:05;10.20;99.90
33077;DHT22;38790;51.964;5.924;2022-12-29T02:56:50;10.20;99.90
33077;DHT22;38790;51.964;5.924;2022-12-29T02:59:17;10.30;99.90
33077;DHT22;38790;51.964;5.924;2022-12-29T03:04:56;10.30;99.90
33077;DHT22;38790;51.964;5.924;2022-12-29T03:13:01;10.40;99.90
33077;DHT22;38790;51.964;5.924;2022-12-29T03:15:55;10.40;99.90
33077;DHT22;38790;51.964;5.924;2022-12-29T03:18:35;10.50;99.90
33077;DHT22;38790;51.964;5.924;2022-12-29T03:21:21;10.40;99.90
33077;DHT22;38790;51.964;5.924;2022-12-29T03:24:11;10.30;99.90
33077;DHT22;38790;51.964;5.924;2022-12-29T03:26:37;10.40;99.90
33077;DHT22;38790;51.964;5.924;2022-12-29T03:29:06;10.40;99.90
33077;DHT22;38790;51.964;5.924;2022-12-29T03:31:35;10.40;99.90
33077;DHT22;38790;51.964;5.924;2022-12-29T03:34:03;10.40;99.90
33077;DHT22;38790;51.964;5.924;2022-12-29T03:36:47;10.40;99.90
33077;DHT22;38790;51.964;5.924;2022-12-29T03:39:14;10.50;99.90
33077;DHT22;38790;51.964;5.924;2022-12-29T03:41:42;10.40;99.90
33077;DHT22;38790;51.964;5.924;2022-12-29T03:44:11;10.40;99.90
33077;DHT22;38790;51.964;5.924;2022-12-29T03:46:38;10.40;99.90
33077;DHT22;38790;51.964;5.924;2022-12-29T03:49:04;10.50;99.90
33077;DHT22;38790;51.964;5.924;2022-12-29T03:51:31;10.40;99.90
33077;DHT22;38790;51.964;5.924;2022-12-29T03:53:57;10.40;99.90
33077;DHT22;38790;51.964;5.924;2022-12-29T03:56:23;10.40;99.90
33077;DHT22;38790;51.964;5.924;2022-12-29T03:58:49;10.40;99.90
33077;DHT22;38790;51.964;5.924;2022-12-29T04:01:18;10.40;99.90
33077;DHT22;38790;51.964;5.924;2022-12-29T04:03:44;10.40;99.90
33077;DHT22;38790;51.964;5.924;2022-12-29T04:06:10;10.30;99.90
33077;DHT22;38790;51.964;5.924;2022-12-29T04:08:36;10.30;99.90
33077;DHT22;38790;51.964;5.924;2022-12-29T04:11:02;10.30;99.90
33077;DHT22;38790;51.964;5.924;2022-12-29T04:13:29;10.30;99.90
33077;DHT22;38790;51.964;5.924;2022-12-29T04:15:55;10.30;99.90
33077;DHT22;38790;51.964;5.924;2022-12-29T04:18:21;10.30;99.90
33077;DHT22;38790;51.964;5.924;2022-12-29T04:20:47;10.30;99.90
33077;DHT22;38790;51.964;5.924;2022-12-29T04:23:26;10.30;99.90
33077;DHT22;38790;51.964;5.924;2022-12-29T04:25:53;10.30;99.90
33077;DHT22;38790;51.964;5.924;2022-12-29T04:28:19;10.20;99.90
33077;DHT22;38790;51.964;5.924;2022-12-29T04:30:46;10.20;99.90
33077;DHT22;38790;51.964;5.924;2022-12-29T04:33:12;10.20;99.90
33077;DHT22;38790;51.964;5.924;2022-12-29T04:35:38;10.20;99.90
33077;DHT22;38790;51.964;5.924;2022-12-29T04:38:04;10.10;99.90
33077;DHT22;38790;51.964;5.924;2022-12-29T04:40:31;10.10;99.90
33077;DHT22;38790;51.964;5.924;2022-12-29T04:42:57;10.00;99.90
33077;DHT22;38790;51.964;5.924;2022-12-29T04:45:23;9.90;99.90
33077;DHT22;38790;51.964;5.924;2022-12-29T04:47:49;9.90;99.90
33077;DHT22;38790;51.964;5.924;2022-12-29T04:50:16;9.90;99.90
33077;DHT22;38790;51.964;5.924;2022-12-29T04:52:42;9.90;99.90
33077;DHT22;38790;51.964;5.924;2022-12-29T04:55:08;9.80;99.90
33077;DHT22;38790;51.964;5.924;2022-12-29T04:57:35;9.70;99.90
33077;DHT22;38790;51.964;5.924;2022-12-29T05:00:01;9.70;99.90
33077;DHT22;38790;51.964;5.924;2022-12-29T05:02:28;9.80;99.90
33077;DHT22;38790;51.964;5.924;2022-12-29T05:04:54;9.70;99.90
33077;DHT22;38790;51.964;5.924;2022-12-29T05:07:21;9.60;99.90
33077;DHT22;38790;51.964;5.924;2022-12-29T05:09:47;9.50;99.90
33077;DHT22;38790;51.964;5.924;2022-12-29T05:12:13;9.40;99.90
33077;DHT22;38790;51.964;5.924;2022-12-29T05:14:39;9.30;99.90
33077;DHT22;38790;51.964;5.924;2022-12-29T05:17:05;9.30;99.90
33077;DHT22;38790;51.964;5.924;2022-12-29T05:19:34;9.30;99.90
33077;DHT22;38790;51.964;5.924;2022-12-29T05:22:00;9.30;99.90
33077;DHT22;38790;51.964;5.924;2022-12-29T05:24:27;9.20;99.90
33077;DHT22;38790;51.964;5.924;2022-12-29T05:26:53;9.30;99.90
33077;DHT22;38790;51.964;5.924;2022-12-29T05:29:19;9.20;99.90
33077;DHT22;38790;51.964;5.924;2022-12-29T05:31:45;9.20;99.90
33077;DHT22;38790;51.964;5.924;2022-12-29T05:34:11;9.10;99.90
33077;DHT22;38790;51.964;5.924;2022-12-29T05:36:38;9.00;99.90
33077;DHT22;38790;51.964;5.924;2022-12-29T05:39:05;8.90;99.90
33077;DHT22;38790;51.964;5.924;2022-12-29T05:41:31;8.90;99.90
33077;DHT22;38790;51.964;5.924;2022-12-29T05:43:57;8.80;99.90
33077;DHT22;38790;51.964;5.924;2022-12-29T05:46:23;8.70;99.90
33077;DHT22;38790;51.964;5.924;2022-12-29T05:48:49;8.70;99.90
33077;DHT22;38790;51.964;5.924;2022-12-29T05:51:15;8.60;99.90
33077;DHT22;38790;51.964;5.924;2022-12-29T05:53:41;8.60;99.90
33077;DHT22;38790;51.964;5.924;2022-12-29T05:56:08;8.50;99.90
33077;DHT22;38790;51.964;5.924;2022-12-29T05:58:34;8.60;99.90
33077;DHT22;38790;51.964;5.924;2022-12-29T06:01:00;8.60;99.90
33077;DHT22;38790;51.964;5.924;2022-12-29T06:03:26;8.60;99.90
33077;DHT22;38790;51.964;5.924;2022-12-29T06:05:52;8.80;99.90
33077;DHT22;38790;51.964;5.924;2022-12-29T06:08:18;8.80;99.90
33077;DHT22;38790;51.964;5.924;2022-12-29T06:10:44;8.80;99.90
33077;DHT22;38790;51.964;5.924;2022-12-29T06:13:10;8.80;99.90
33077;DHT22;38790;51.964;5.924;2022-12-29T06:15:37;8.80;99.90
33077;DHT22;38790;51.964;5.924;2022-12-29T06:18:03;8.90;99.90
33077;DHT22;38790;51.964;5.924;2022-12-29T06:20:29;8.80;99.90
33077;DHT22;38790;51.964;5.924;2022-12-29T06:22:55;8.90;99.90
33077;DHT22;38790;51.964;5.924;2022-12-29T06:25:21;8.90;99.90
33077;DHT22;38790;51.964;5.924;2022-12-29T06:27:47;8.90;99.90
33077;DHT22;38790;51.964;5.924;2022-12-29T06:30:14;8.90;99.90
33077;DHT22;38790;51.964;5.924;2022-12-29T06:32:41;8.80;99.90
33077;DHT22;38790;51.964;5.924;2022-12-29T06:35:07;8.80;99.90
33077;DHT22;38790;51.964;5.924;2022-12-29T06:37:33;8.80;99.90
33077;DHT22;38790;51.964;5.924;2022-12-29T06:40:00;8.70;99.90
33077;DHT22;38790;51.964;5.924;2022-12-29T06:42:26;8.70;99.90
33077;DHT22;38790;51.964;5.924;2022-12-29T06:44:52;8.70;99.90
33077;DHT22;38790;51.964;5.924;2022-12-29T06:47:19;8.80;99.90
33077;DHT22;38790;51.964;5.924;2022-12-29T06:49:45;8.80;99.90
33077;DHT22;38790;51.964;5.924;2022-12-29T06:52:11;8.90;99.90
33077;DHT22;38790;51.964;5.924;2022-12-29T06:54:37;9.00;99.90
33077;DHT22;38790;51.964;5.924;2022-12-29T06:57:03;9.00;99.90
33077;DHT22;38790;51.964;5.924;2022-12-29T06:59:29;9.00;99.90
33077;DHT22;38790;51.964;5.924;2022-12-29T07:01:56;9.00;99.90
33077;DHT22;38790;51.964;5.924;2022-12-29T07:04:22;9.00;99.90
33077;DHT22;38790;51.964;5.924;2022-12-29T07:06:48;9.00;99.90
33077;DHT22;38790;51.964;5.924;2022-12-29T07:09:14;9.00;99.90
33077;DHT22;38790;51.964;5.924;2022-12-29T07:11:40;9.00;99.90
33077;DHT22;38790;51.964;5.924;2022-12-29T07:14:07;9.00;99.90
33077;DHT22;38790;51.964;5.924;2022-12-29T07:16:33;9.10;99.90
33077;DHT22;38790;51.964;5.924;2022-12-29T07:19:00;9.10;99.90
33077;DHT22;38790;51.964;5.924;2022-12-29T07:21:26;9.10;99.90
33077;DHT22;38790;51.964;5.924;2022-12-29T07:23:53;9.10;99.90
33077;DHT22;38790;51.964;5.924;2022-12-29T07:26:20;9.10;99.90
33077;DHT22;38790;51.964;5.924;2022-12-29T07:28:46;9.20;99.90
33077;DHT22;38790;51.964;5.924;2022-12-29T07:31:17;9.20;99.90
33077;DHT22;38790;51.964;5.924;2022-12-29T07:33:44;9.20;99.90
33077;DHT22;38790;51.964;5.924;2022-12-29T07:36:12;9.20;99.90
33077;DHT22;38790;51.964;5.924;2022-12-29T07:38:38;9.20;99.90
33077;DHT22;38790;51.964;5.924;2022-12-29T07:41:04;9.20;99.90
33077;DHT22;38790;51.964;5.924;2022-12-29T07:43:34;9.30;99.90
33077;DHT22;38790;51.964;5.924;2022-12-29T07:46:00;9.30;99.90
33077;DHT22;38790;51.964;5.924;2022-12-29T07:48:26;9.30;99.90
33077;DHT22;38790;51.964;5.924;2022-12-29T07:50:53;9.30;99.90
33077;DHT22;38790;51.964;5.924;2022-12-29T07:53:20;9.30;99.90
33077;DHT22;38790;51.964;5.924;2022-12-29T07:55:46;9.30;99.90
33077;DHT22;38790;51.964;5.924;2022-12-29T07:58:12;9.30;99.90
33077;DHT22;38790;51.964;5.924;2022-12-29T08:00:39;9.30;99.90
33077;DHT22;38790;51.964;5.924;2022-12-29T08:03:05;9.30;99.90
33077;DHT22;38790;51.964;5.924;2022-12-29T08:05:32;9.40;99.90
33077;DHT22;38790;51.964;5.924;2022-12-29T08:07:59;9.40;99.90
33077;DHT22;38790;51.964;5.924;2022-12-29T08:10:25;9.40;99.90
33077;DHT22;38790;51.964;5.924;2022-12-29T08:12:51;9.40;99.90
33077;DHT22;38790;51.964;5.924;2022-12-29T08:15:18;9.30;99.90
33077;DHT22;38790;51.964;5.924;2022-12-29T08:17:44;9.20;99.90
33077;DHT22;38790;51.964;5.924;2022-12-29T08:20:10;9.10;99.90
33077;DHT22;38790;51.964;5.924;2022-12-29T08:22:37;9.00;99.90
33077;DHT22;38790;51.964;5.924;2022-12-29T08:25:03;9.00;99.90
33077;DHT22;38790;51.964;5.924;2022-12-29T08:27:29;9.10;99.90
33077;DHT22;38790;51.964;5.924;2022-12-29T08:29:55;9.10;99.90
33077;DHT22;38790;51.964;5.924;2022-12-29T08:32:22;9.20;99.90
33077;DHT22;38790;51.964;5.924;2022-12-29T08:34:48;9.30;99.90
33077;DHT22;38790;51.964;5.924;2022-12-29T08:37:14;9.40;99.90
33077;DHT22;38790;51.964;5.924;2022-12-29T08:39:40;9.40;99.90
33077;DHT22;38790;51.964;5.924;2022-12-29T08:42:07;9.40;99.90
33077;DHT22;38790;51.964;5.924;2022-12-29T08:44:33;9.50;99.90
33077;DHT22;38790;51.964;5.924;2022-12-29T08:46:59;9.50;99.90
33077;DHT22;38790;51.964;5.924;2022-12-29T08:49:25;9.50;99.90
33077;DHT22;38790;51.964;5.924;2022-12-29T08:51:51;9.60;99.90
33077;DHT22;38790;51.964;5.924;2022-12-29T08:54:18;9.60;99.90
33077;DHT22;38790;51.964;5.924;2022-12-29T08:56:44;9.60;99.90
33077;DHT22;38790;51.964;5.924;2022-12-29T08:59:10;9.60;99.90
33077;DHT22;38790;51.964;5.924;2022-12-29T09:01:36;9.70;99.90
33077;DHT22;38790;51.964;5.924;2022-12-29T09:04:06;9.70;99.90
33077;DHT22;38790;51.964;5.924;2022-12-29T09:06:32;9.70;99.90
33077;DHT22;38790;51.964;5.924;2022-12-29T09:08:59;9.70;99.90
33077;DHT22;38790;51.964;5.924;2022-12-29T09:11:25;9.70;99.90
33077;DHT22;38790;51.964;5.924;2022-12-29T09:13:52;9.60;99.90
33077;DHT22;38790;51.964;5.924;2022-12-29T09:16:21;9.60;99.90
33077;DHT22;38790;51.964;5.924;2022-12-29T09:18:48;9.60;99.90
33077;DHT22;38790;51.964;5.924;2022-12-29T09:21:14;9.50;99.90
33077;DHT22;38790;51.964;5.924;2022-12-29T09:23:40;9.50;99.90
33077;DHT22;38790;51.964;5.924;2022-12-29T09:26:07;9.40;99.90
33077;DHT22;38790;51.964;5.924;2022-12-29T09:28:34;9.30;99.90
33077;DHT22;38790;51.964;5.924;2022-12-29T09:31:00;9.30;99.90
33077;DHT22;38790;51.964;5.924;2022-12-29T09:33:27;9.30;99.90
33077;DHT22;38790;51.964;5.924;2022-12-29T09:35:55;9.30;99.90
33077;DHT22;38790;51.964;5.924;2022-12-29T09:38:23;9.30;99.90
33077;DHT22;38790;51.964;5.924;2022-12-29T09:40:55;9.30;99.90
33077;DHT22;38790;51.964;5.924;2022-12-29T09:46:27;9.30;99.90
33077;DHT22;38790;51.964;5.924;2022-12-29T09:49:04;9.40;99.90
33077;DHT22;38790;51.964;5.924;2022-12-29T09:51:33;9.40;99.90
33077;DHT22;38790;51.964;5.924;2022-12-29T09:54:13;9.50;99.90
33077;DHT22;38790;51.964;5.924;2022-12-29T09:56:42;9.50;99.90
33077;DHT22;38790;51.964;5.924;2022-12-29T09:59:17;9.50;99.90
33077;DHT22;38790;51.964;5.924;2022-12-29T10:02:04;9.50;99.90
33077;DHT22;38790;51.964;5.924;2022-12-29T10:04:37;9.60;99.90
33077;DHT22;38790;51.964;5.924;2022-12-29T10:15:40;9.30;99.90
33077;DHT22;38790;51.964;5.924;2022-12-29T10:23:39;9.10;99.90
33077;DHT22;38790;51.964;5.924;2022-12-29T10:26:15;9.10;99.90
33077;DHT22;38790;51.964;5.924;2022-12-29T10:31:56;9.10;99.90
33077;DHT22;38790;51.964;5.924;2022-12-29T10:34:39;9.10;99.90
33077;DHT22;38790;51.964;5.924;2022-12-29T10:40:11;9.10;99.90
33077;DHT22;38790;51.964;5.924;2022-12-29T10:42:42;9.10;99.90
33077;DHT22;38790;51.964;5.924;2022-12-29T10:45:15;9.20;99.90
33077;DHT22;38790;51.964;5.924;2022-12-29T10:47:56;9.20;99.90
33077;DHT22;38790;51.964;5.924;2022-12-29T10:50:25;9.20;99.90
33077;DHT22;38790;51.964;5.924;2022-12-29T10:52:53;9.20;99.90
33077;DHT22;38790;51.964;5.924;2022-12-29T10:55:27;9.20;99.90
33077;DHT22;38790;51.964;5.924;2022-12-29T10:57:56;9.30;99.90
33077;DHT22;38790;51.964;5.924;2022-12-29T11:00:25;9.30;99.90
33077;DHT22;38790;51.964;5.924;2022-12-29T11:05:55;9.30;99.90
33077;DHT22;38790;51.964;5.924;2022-12-29T11:08:30;9.40;99.90
33077;DHT22;38790;51.964;5.924;2022-12-29T11:11:09;9.40;99.90
33077;DHT22;38790;51.964;5.924;2022-12-29T11:14:02;9.30;99.90
33077;DHT22;38790;51.964;5.924;2022-12-29T11:16:35;9.30;99.90
33077;DHT22;38790;51.964;5.924;2022-12-29T11:19:02;9.30;99.90
33077;DHT22;38790;51.964;5.924;2022-12-29T11:21:36;9.30;99.90
33077;DHT22;38790;51.964;5.924;2022-12-29T11:24:28;9.40;99.90
33077;DHT22;38790;51.964;5.924;2022-12-29T11:27:08;9.40;99.90
33077;DHT22;38790;51.964;5.924;2022-12-29T11:29:42;9.50;99.90
33077;DHT22;38790;51.964;5.924;2022-12-29T11:32:19;9.60;99.90
33077;DHT22;38790;51.964;5.924;2022-12-29T11:34:46;9.50;99.90
33077;DHT22;38790;51.964;5.924;2022-12-29T11:40:17;9.50;99.90
33077;DHT22;38790;51.964;5.924;2022-12-29T11:43:00;9.50;99.90
33077;DHT22;38790;51.964;5.924;2022-12-29T11:45:32;9.50;99.90
33077;DHT22;38790;51.964;5.924;2022-12-29T11:48:08;9.60;99.90
33077;DHT22;38790;51.964;5.924;2022-12-29T11:50:38;9.60;99.90
33077;DHT22;38790;51.964;5.924;2022-12-29T11:55:34;9.70;99.90
33077;DHT22;38790;51.964;5.924;2022-12-29T11:58:02;9.70;99.90
33077;DHT22;38790;51.964;5.924;2022-12-29T12:00:34;9.70;99.90
33077;DHT22;38790;51.964;5.924;2022-12-29T12:03:04;9.80;99.90
33077;DHT22;38790;51.964;5.924;2022-12-29T12:08:31;9.60;99.90
33077;DHT22;38790;51.964;5.924;2022-12-29T12:11:24;9.60;99.90
33077;DHT22;38790;51.964;5.924;2022-12-29T12:21:40;9.60;99.90
33077;DHT22;38790;51.964;5.924;2022-12-29T12:24:31;9.70;99.90
33077;DHT22;38790;51.964;5.924;2022-12-29T12:27:20;9.80;99.90
33077;DHT22;38790;51.964;5.924;2022-12-29T12:29:58;9.70;99.90
33077;DHT22;38790;51.964;5.924;2022-12-29T12:32:35;9.70;99.90
33077;DHT22;38790;51.964;5.924;2022-12-29T12:35:24;9.80;99.90
33077;DHT22;38790;51.964;5.924;2022-12-29T12:41:11;9.80;99.90
33077;DHT22;38790;51.964;5.924;2022-12-29T12:44:00;9.90;99.90
33077;DHT22;38790;51.964;5.924;2022-12-29T12:51:50;10.20;99.90
33077;DHT22;38790;51.964;5.924;2022-12-29T12:54:37;10.30;99.90
33077;DHT22;38790;51.964;5.924;2022-12-29T13:00:14;10.10;99.90
33077;DHT22;38790;51.964;5.924;2022-12-29T13:30:17;9.80;99.90
33077;DHT22;38790;51.964;5.924;2022-12-29T13:35:42;9.70;99.90
33077;DHT22;38790;51.964;5.924;2022-12-29T13:38:15;9.70;99.90
33077;DHT22;38790;51.964;5.924;2022-12-29T13:40:46;9.70;99.90
33077;DHT22;38790;51.964;5.924;2022-12-29T13:43:14;9.70;99.90
33077;DHT22;38790;51.964;5.924;2022-12-29T13:45:42;9.70;99.90
33077;DHT22;38790;51.964;5.924;2022-12-29T13:48:23;9.80;99.90
33077;DHT22;38790;51.964;5.924;2022-12-29T13:50:57;9.80;99.90
33077;DHT22;38790;51.964;5.924;2022-12-29T13:53:49;9.80;99.90
33077;DHT22;38790;51.964;5.924;2022-12-29T13:59:25;9.80;99.90
33077;DHT22;38790;51.964;5.924;2022-12-29T14:04:34;9.70;99.90
33077;DHT22;38790;51.964;5.924;2022-12-29T14:07:14;9.70;99.90
33077;DHT22;38790;51.964;5.924;2022-12-29T14:12:41;9.60;99.90
33077;DHT22;38790;51.964;5.924;2022-12-29T14:17:37;9.30;99.90
33077;DHT22;38790;51.964;5.924;2022-12-29T14:20:17;9.30;99.90
33077;DHT22;38790;51.964;5.924;2022-12-29T14:22:59;9.30;99.90
33077;DHT22;38790;51.964;5.924;2022-12-29T14:25:54;9.20;99.90
33077;DHT22;38790;51.964;5.924;2022-12-29T14:28:42;9.20;99.90
33077;DHT22;38790;51.964;5.924;2022-12-29T14:37:21;9.10;99.90
33077;DHT22;38790;51.964;5.924;2022-12-29T14:39:43;9.10;99.90
33077;DHT22;38790;51.964;5.924;2022-12-29T14:44:52;9.00;99.90
33077;DHT22;38790;51.964;5.924;2022-12-29T14:52:32;8.70;99.90
33077;DHT22;38790;51.964;5.924;2022-12-29T14:57:41;8.60;99.90
33077;DHT22;38790;51.964;5.924;2022-12-29T15:00:35;8.60;99.90
33077;DHT22;38790;51.964;5.924;2022-12-29T15:03:32;8.60;99.90
33077;DHT22;38790;51.964;5.924;2022-12-29T15:06:04;8.50;99.90
33077;DHT22;38790;51.964;5.924;2022-12-29T15:08:59;8.50;99.90
33077;DHT22;38790;51.964;5.924;2022-12-29T15:11:32;8.50;99.90
33077;DHT22;38790;51.964;5.924;2022-12-29T15:14:37;8.60;99.90
33077;DHT22;38790;51.964;5.924;2022-12-29T15:17:24;8.50;99.90
33077;DHT22;38790;51.964;5.924;2022-12-29T15:19:50;8.60;99.90
33077;DHT22;38790;51.964;5.924;2022-12-29T15:22:17;8.60;99.90
33077;DHT22;38790;51.964;5.924;2022-12-29T15:24:44;8.50;99.90
33077;DHT22;38790;51.964;5.924;2022-12-29T15:27:14;8.50;99.90
33077;DHT22;38790;51.964;5.924;2022-12-29T15:29:43;8.50;99.90
33077;DHT22;38790;51.964;5.924;2022-12-29T15:34:44;8.50;99.90
33077;DHT22;38790;51.964;5.924;2022-12-29T15:37:24;8.50;99.90
33077;DHT22;38790;51.964;5.924;2022-12-29T15:39:52;8.50;99.90
33077;DHT22;38790;51.964;5.924;2022-12-29T15:44:47;8.50;99.90
33077;DHT22;38790;51.964;5.924;2022-12-29T15:47:24;8.50;99.90
33077;DHT22;38790;51.964;5.924;2022-12-29T15:52:34;8.40;99.90
33077;DHT22;38790;51.964;5.924;2022-12-29T15:55:01;8.40;99.90
33077;DHT22;38790;51.964;5.924;2022-12-29T15:57:41;8.40;99.90
33077;DHT22;38790;51.964;5.924;2022-12-29T16:00:29;8.40;99.90
33077;DHT22;38790;51.964;5.924;2022-12-29T16:02:58;8.40;99.90
33077;DHT22;38790;51.964;5.924;2022-12-29T16:05:32;8.30;99.90
33077;DHT22;38790;51.964;5.924;2022-12-29T16:08:00;8.30;99.90
33077;DHT22;38790;51.964;5.924;2022-12-29T16:10:36;8.40;99.90
33077;DHT22;38790;51.964;5.924;2022-12-29T16:15:37;8.30;99.90
33077;DHT22;38790;51.964;5.924;2022-12-29T16:18:03;8.30;99.90
33077;DHT22;38790;51.964;5.924;2022-12-29T16:20:39;8.30;99.90
33077;DHT22;38790;51.964;5.924;2022-12-29T16:23:33;8.30;99.90
33077;DHT22;38790;51.964;5.924;2022-12-29T16:25:59;8.30;99.90
33077;DHT22;38790;51.964;5.924;2022-12-29T16:28:38;8.30;99.90
33077;DHT22;38790;51.964;5.924;2022-12-29T16:31:21;8.40;99.90
33077;DHT22;38790;51.964;5.924;2022-12-29T16:33:50;8.40;99.90
33077;DHT22;38790;51.964;5.924;2022-12-29T16:36:34;8.40;99.90
33077;DHT22;38790;51.964;5.924;2022-12-29T16:41:57;8.30;99.90
33077;DHT22;38790;51.964;5.924;2022-12-29T16:44:30;8.30;99.90
33077;DHT22;38790;51.964;5.924;2022-12-29T16:47:04;8.20;99.90
33077;DHT22;38790;51.964;5.924;2022-12-29T16:49:37;8.20;99.90
33077;DHT22;38790;51.964;5.924;2022-12-29T16:54:50;8.00;99.90
33077;DHT22;38790;51.964;5.924;2022-12-29T16:57:26;8.00;99.90
33077;DHT22;38790;51.964;5.924;2022-12-29T16:59:57;8.00;99.90
33077;DHT22;38790;51.964;5.924;2022-12-29T17:02:28;7.90;99.90
33077;DHT22;38790;51.964;5.924;2022-12-29T17:04:55;7.90;99.90
33077;DHT22;38790;51.964;5.924;2022-12-29T17:07:23;7.90;99.90
33077;DHT22;38790;51.964;5.924;2022-12-29T17:09:50;7.90;99.90
33077;DHT22;38790;51.964;5.924;2022-12-29T17:12:28;7.90;99.90
33077;DHT22;38790;51.964;5.924;2022-12-29T17:17:54;7.90;99.90
33077;DHT22;38790;51.964;5.924;2022-12-29T17:20:29;7.80;99.90
33077;DHT22;38790;51.964;5.924;2022-12-29T17:22:56;7.80;99.90
33077;DHT22;38790;51.964;5.924;2022-12-29T17:25:33;7.80;99.90
33077;DHT22;38790;51.964;5.924;2022-12-29T17:28:02;7.80;99.90
33077;DHT22;38790;51.964;5.924;2022-12-29T17:30:30;7.80;99.90
33077;DHT22;38790;51.964;5.924;2022-12-29T17:33:01;7.70;99.90
33077;DHT22;38790;51.964;5.924;2022-12-29T17:35:28;7.80;99.90
33077;DHT22;38790;51.964;5.924;2022-12-29T17:37:55;7.70;99.90
33077;DHT22;38790;51.964;5.924;2022-12-29T17:40:24;7.60;99.90
33077;DHT22;38790;51.964;5.924;2022-12-29T17:42:53;7.60;99.90
33077;DHT22;38790;51.964;5.924;2022-12-29T17:45:27;7.60;99.90
33077;DHT22;38790;51.964;5.924;2022-12-29T17:47:54;7.50;99.90
33077;DHT22;38790;51.964;5.924;2022-12-29T17:50:23;7.50;99.90
33077;DHT22;38790;51.964;5.924;2022-12-29T17:52:58;7.60;99.90
33077;DHT22;38790;51.964;5.924;2022-12-29T17:55:25;7.60;99.90
33077;DHT22;38790;51.964;5.924;2022-12-29T17:57:51;7.60;99.90
33077;DHT22;38790;51.964;5.924;2022-12-29T18:00:24;7.50;99.90
33077;DHT22;38790;51.964;5.924;2022-12-29T18:02:53;7.50;99.90
33077;DHT22;38790;51.964;5.924;2022-12-29T18:05:29;7.50;99.90
33077;DHT22;38790;51.964;5.924;2022-12-29T18:07:58;7.40;99.90
33077;DHT22;38790;51.964;5.924;2022-12-29T18:10:26;7.30;99.90
33077;DHT22;38790;51.964;5.924;2022-12-29T18:12:54;7.30;99.90
33077;DHT22;38790;51.964;5.924;2022-12-29T18:15:31;7.30;99.90
33077;DHT22;38790;51.964;5.924;2022-12-29T18:18:01;7.20;99.90
33077;DHT22;38790;51.964;5.924;2022-12-29T18:20:31;7.20;99.90
33077;DHT22;38790;51.964;5.924;2022-12-29T18:22:57;7.20;99.90
33077;DHT22;38790;51.964;5.924;2022-12-29T18:25:46;7.10;99.90
33077;DHT22;38790;51.964;5.924;2022-12-29T18:28:14;7.10;99.90
33077;DHT22;38790;51.964;5.924;2022-12-29T18:30:40;7.20;99.90
33077;DHT22;38790;51.964;5.924;2022-12-29T18:33:13;7.30;99.90
33077;DHT22;38790;51.964;5.924;2022-12-29T18:35:42;7.40;99.90
33077;DHT22;38790;51.964;5.924;2022-12-29T18:38:09;7.40;99.90
33077;DHT22;38790;51.964;5.924;2022-12-29T18:40:39;7.40;99.90
33077;DHT22;38790;51.964;5.924;2022-12-29T18:43:08;7.40;99.90
33077;DHT22;38790;51.964;5.924;2022-12-29T18:45:34;7.50;99.90
33077;DHT22;38790;51.964;5.924;2022-12-29T18:48:03;7.40;99.90
33077;DHT22;38790;51.964;5.924;2022-12-29T18:50:30;7.40;99.90